createdAt,value
2022-08-31T00:01:10.799Z,42.4
2022-08-31T00:02:54.505Z,42.4
2022-08-31T00:04:38.205Z,42.5
2022-08-31T00:06:21.909Z,42.5
2022-08-31T00:08:05.619Z,42.5
2022-08-31T00:09:49.306Z,42.4
2022-08-31T00:11:33.015Z,42.4
2022-08-31T00:13:16.717Z,42.3
2022-08-31T00:15:00.409Z,42.4
2022-08-31T00:16:44.117Z,42.5
2022-08-31T00:18:27.819Z,42.6
2022-08-31T00:20:11.514Z,42.7
2022-08-31T00:21:55.216Z,42.7
2022-08-31T00:23:38.923Z,42.6
2022-08-31T00:25:22.618Z,42.5
2022-08-31T00:27:06.432Z,42.4
2022-08-31T00:28:50.111Z,42.4
2022-08-31T00:30:33.720Z,42.5
2022-08-31T00:32:17.429Z,42.6
2022-08-31T00:34:01.199Z,42.7
2022-08-31T00:35:44.822Z,42.8
2022-08-31T00:37:28.562Z,43
2022-08-31T00:39:12.232Z,43.2
2022-08-31T00:40:55.934Z,43.5
2022-08-31T00:42:39.653Z,44.5
2022-08-31T00:44:23.339Z,45.7
2022-08-31T00:46:07.058Z,45.8
2022-08-31T00:47:50.740Z,45.5
2022-08-31T00:49:34.450Z,45.4
2022-08-31T00:51:18.216Z,45.2
2022-08-31T00:53:01.839Z,45.2
2022-08-31T00:54:45.659Z,45.3
2022-08-31T00:56:29.295Z,45.2
2022-08-31T00:58:12.939Z,45.2
2022-08-31T00:59:56.697Z,45.2
2022-08-31T01:01:40.351Z,45.3
2022-08-31T01:03:24.105Z,45.2
2022-08-31T01:05:07.747Z,45.1
2022-08-31T01:06:51.532Z,45.2
2022-08-31T01:08:35.157Z,45.3
2022-08-31T01:10:18.863Z,45.3
2022-08-31T01:12:02.588Z,45.4
2022-08-31T01:13:46.296Z,45.4
2022-08-31T01:15:29.984Z,45.5
2022-08-31T01:17:13.664Z,45.5
2022-08-31T01:18:57.444Z,45.6
2022-08-31T01:20:41.141Z,45.7
2022-08-31T01:22:24.771Z,45.6
2022-08-31T01:24:08.472Z,45.7
2022-08-31T01:25:52.173Z,45.9
2022-08-31T01:27:35.874Z,46
2022-08-31T01:29:19.582Z,46
2022-08-31T01:31:03.276Z,46
2022-08-31T01:32:46.979Z,46
2022-08-31T01:34:30.685Z,46
2022-08-31T01:36:14.385Z,46
2022-08-31T01:37:58.077Z,46
2022-08-31T01:39:41.785Z,46.1
2022-08-31T01:41:25.479Z,46.3
2022-08-31T01:43:09.189Z,46.4
2022-08-31T01:44:52.904Z,46.5
2022-08-31T01:46:36.592Z,46.4
2022-08-31T01:48:20.298Z,46.4
2022-08-31T01:50:03.993Z,46.3
2022-08-31T01:51:47.699Z,46.3
2022-08-31T01:53:31.406Z,46.3
2022-08-31T01:55:15.097Z,46.4
2022-08-31T01:56:58.801Z,46.5
2022-08-31T01:58:42.515Z,46.5
2022-08-31T02:00:26.205Z,46.6
2022-08-31T02:02:09.909Z,46.6
2022-08-31T02:03:53.614Z,46.7
2022-08-31T02:05:37.326Z,46.9
2022-08-31T02:07:21.017Z,46.8
2022-08-31T02:09:04.723Z,46.8
2022-08-31T02:10:48.425Z,46.7
2022-08-31T02:12:32.129Z,46.8
2022-08-31T02:14:15.821Z,46.9
2022-08-31T02:15:59.525Z,47
2022-08-31T02:17:43.235Z,47
2022-08-31T02:19:26.953Z,47.1
2022-08-31T02:21:10.636Z,47.3
2022-08-31T02:22:54.344Z,47.4
2022-08-31T02:24:38.036Z,47.6
2022-08-31T02:26:21.748Z,47.7
2022-08-31T02:28:05.438Z,47.8
2022-08-31T02:29:49.144Z,47.8
2022-08-31T02:31:32.853Z,47.9
2022-08-31T02:33:16.543Z,47.9
2022-08-31T02:35:00.244Z,48
2022-08-31T02:36:43.950Z,48.2
2022-08-31T02:38:27.641Z,48
2022-08-31T02:40:11.357Z,48
2022-08-31T02:41:55.054Z,48
2022-08-31T02:43:38.755Z,48.2
2022-08-31T02:45:22.464Z,48.2
2022-08-31T02:47:06.157Z,48.3
2022-08-31T02:48:49.857Z,48.3
2022-08-31T02:50:33.567Z,48.4
2022-08-31T02:52:17.261Z,48.4
2022-08-31T02:54:00.973Z,48.5
2022-08-31T02:55:44.670Z,48.4
2022-08-31T02:59:12.063Z,48.5
2022-08-31T03:00:55.773Z,48.5
2022-08-31T03:02:39.466Z,48.5
2022-08-31T03:04:23.169Z,48.6
2022-08-31T03:06:06.895Z,48.4
2022-08-31T03:07:50.579Z,48.4
2022-08-31T03:09:34.282Z,48.3
2022-08-31T03:11:17.968Z,48.2
2022-08-31T03:13:01.675Z,48.2
2022-08-31T03:14:45.379Z,48.2
2022-08-31T03:16:29.071Z,48.2
2022-08-31T03:18:12.780Z,48.3
2022-08-31T03:19:56.488Z,48.4
2022-08-31T03:21:40.196Z,48.5
2022-08-31T03:23:23.889Z,48.6
2022-08-31T03:25:07.603Z,48.6
2022-08-31T03:26:51.287Z,48.8
2022-08-31T03:28:35.000Z,48.9
2022-08-31T03:30:18.682Z,49
2022-08-31T03:32:02.394Z,49
2022-08-31T03:33:46.096Z,49
2022-08-31T03:35:29.792Z,49.1
2022-08-31T03:37:13.499Z,49.2
2022-08-31T03:38:57.205Z,49.1
2022-08-31T03:40:40.895Z,49.1
2022-08-31T03:42:24.606Z,49.3
2022-08-31T03:44:08.301Z,49.4
2022-08-31T03:45:52.004Z,49.3
2022-08-31T03:47:35.713Z,49.2
2022-08-31T03:49:19.412Z,49.2
2022-08-31T03:51:03.113Z,49.3
2022-08-31T03:52:46.816Z,49.4
2022-08-31T03:54:30.519Z,49.4
2022-08-31T03:56:14.221Z,49.5
2022-08-31T03:57:57.921Z,49.3
2022-08-31T03:59:41.621Z,49.3
2022-08-31T04:01:25.330Z,49.3
2022-08-31T04:03:09.023Z,49.3
2022-08-31T04:04:52.728Z,49.4
2022-08-31T04:06:36.433Z,49.5
2022-08-31T04:08:20.130Z,49.5
2022-08-31T04:10:03.831Z,49.5
2022-08-31T04:11:47.541Z,49.5
2022-08-31T04:13:31.227Z,49.7
2022-08-31T04:15:14.948Z,49.8
2022-08-31T04:16:58.643Z,49.8
2022-08-31T04:18:42.338Z,49.7
2022-08-31T04:20:26.045Z,49.7
2022-08-31T04:22:09.747Z,49.7
2022-08-31T04:23:53.447Z,49.7
2022-08-31T04:25:37.151Z,49.8
2022-08-31T04:27:20.845Z,49.7
2022-08-31T04:29:04.547Z,49.6
2022-08-31T04:30:48.249Z,49.6
2022-08-31T04:32:31.955Z,49.5
2022-08-31T04:34:15.655Z,49.6
2022-08-31T04:35:59.363Z,49.5
2022-08-31T04:37:43.053Z,49.5
2022-08-31T04:39:26.758Z,49.5
2022-08-31T04:41:10.465Z,49.6
2022-08-31T04:42:54.158Z,49.5
2022-08-31T04:44:37.869Z,49.7
2022-08-31T04:46:21.567Z,49.7
2022-08-31T04:48:05.265Z,49.8
2022-08-31T04:49:48.971Z,49.8
2022-08-31T04:51:32.691Z,49.8
2022-08-31T04:53:16.369Z,49.9
2022-08-31T04:55:00.070Z,50
2022-08-31T04:56:43.756Z,49.9
2022-08-31T04:58:27.464Z,49.8
2022-08-31T05:00:11.179Z,50
2022-08-31T05:01:54.866Z,49.8
2022-08-31T05:03:38.586Z,49.9
2022-08-31T05:05:22.263Z,50.1
2022-08-31T05:07:05.982Z,51.9
2022-08-31T05:08:49.671Z,52.1
2022-08-31T05:10:33.368Z,52.1
2022-08-31T05:12:17.078Z,52.4
2022-08-31T05:14:00.784Z,52.5
2022-08-31T05:15:44.475Z,52.4
2022-08-31T05:17:28.181Z,52.6
2022-08-31T05:19:11.879Z,52.9
2022-08-31T05:20:55.581Z,53.1
2022-08-31T05:22:39.304Z,53.1
2022-08-31T05:24:22.980Z,53.2
2022-08-31T05:26:06.687Z,53.2
2022-08-31T05:27:50.391Z,53.2
2022-08-31T05:29:34.080Z,53.3
2022-08-31T05:31:17.786Z,53.4
2022-08-31T05:33:01.489Z,53.5
2022-08-31T05:34:45.200Z,53.7
2022-08-31T05:36:28.894Z,53.8
2022-08-31T05:38:12.593Z,53.5
2022-08-31T05:39:56.296Z,53.4
2022-08-31T05:41:40.002Z,53.3
2022-08-31T05:43:23.694Z,53.1
2022-08-31T05:45:07.392Z,52.8
2022-08-31T05:46:51.112Z,52.8
2022-08-31T05:48:34.791Z,52.6
2022-08-31T05:50:18.507Z,52.9
2022-08-31T05:52:02.196Z,52.8
2022-08-31T05:53:45.896Z,52.6
2022-08-31T05:55:29.602Z,52.6
2022-08-31T05:57:13.301Z,52.4
2022-08-31T05:58:57.003Z,52.4
2022-08-31T06:00:40.710Z,52.3
2022-08-31T06:02:24.444Z,52.3
2022-08-31T06:04:08.106Z,52.4
2022-08-31T06:05:51.806Z,52.3
2022-08-31T06:07:35.504Z,52.5
2022-08-31T06:09:19.212Z,52.5
2022-08-31T06:11:02.909Z,52.6
2022-08-31T06:12:46.612Z,52.5
2022-08-31T06:14:30.318Z,52.5
2022-08-31T06:16:14.006Z,52.5
2022-08-31T06:17:57.716Z,52.5
2022-08-31T06:19:41.427Z,52.6
2022-08-31T06:21:25.114Z,52.5
2022-08-31T06:23:08.820Z,52.4
2022-08-31T06:24:52.521Z,52.4
2022-08-31T06:26:36.219Z,53
2022-08-31T06:28:19.927Z,53
2022-08-31T06:30:03.616Z,52.5
2022-08-31T06:31:47.324Z,52.6
2022-08-31T06:33:31.033Z,52.5
2022-08-31T06:35:14.723Z,52.6
2022-08-31T06:36:58.427Z,52.6
2022-08-31T06:38:42.137Z,52.7
2022-08-31T06:40:25.829Z,52.7
2022-08-31T06:42:09.534Z,52.7
2022-08-31T06:43:53.248Z,52.6
2022-08-31T06:45:36.941Z,52.6
2022-08-31T06:47:20.647Z,52.5
2022-08-31T06:49:04.360Z,52.5
2022-08-31T06:50:48.088Z,52.5
2022-08-31T06:52:31.747Z,52.5
2022-08-31T06:54:15.446Z,52.5
2022-08-31T06:55:59.148Z,52.4
2022-08-31T06:57:42.853Z,52.5
2022-08-31T06:59:26.547Z,52.5
2022-08-31T07:01:10.257Z,52.4
2022-08-31T07:02:53.959Z,52.4
2022-08-31T07:04:37.671Z,52.4
2022-08-31T07:06:21.375Z,52.4
2022-08-31T07:08:05.056Z,52.4
2022-08-31T07:09:48.760Z,52.5
2022-08-31T07:11:32.474Z,52.4
2022-08-31T07:13:16.156Z,52.4
2022-08-31T07:14:59.860Z,52.4
2022-08-31T07:16:43.563Z,52.3
2022-08-31T07:18:27.268Z,52.4
2022-08-31T07:20:10.969Z,52.4
2022-08-31T07:21:54.672Z,52.5
2022-08-31T07:23:38.374Z,52.3
2022-08-31T07:25:22.081Z,52.4
2022-08-31T07:27:05.775Z,52.4
2022-08-31T07:28:49.496Z,52.3
2022-08-31T07:30:33.184Z,52.4
2022-08-31T07:32:16.872Z,52.3
2022-08-31T07:34:00.581Z,52.3
2022-08-31T07:35:44.285Z,52.3
2022-08-31T07:37:27.975Z,52.2
2022-08-31T07:39:11.684Z,52.3
2022-08-31T07:40:55.389Z,52.2
2022-08-31T07:42:39.084Z,52.1
2022-08-31T07:44:22.791Z,52.1
2022-08-31T07:46:06.489Z,52.2
2022-08-31T07:47:50.187Z,52.2
2022-08-31T07:49:33.894Z,52.1
2022-08-31T07:51:17.586Z,52
2022-08-31T07:53:01.290Z,52
2022-08-31T07:54:45.012Z,52
2022-08-31T07:56:28.700Z,52.1
2022-08-31T07:58:12.397Z,52
2022-08-31T07:59:56.105Z,52
2022-08-31T08:01:39.791Z,51.9
2022-08-31T08:03:23.525Z,52
2022-08-31T08:05:07.201Z,51.9
2022-08-31T08:06:50.904Z,51.9
2022-08-31T08:08:34.603Z,51.9
2022-08-31T08:10:18.303Z,51.9
2022-08-31T08:12:02.006Z,51.9
2022-08-31T08:13:45.710Z,51.9
2022-08-31T08:15:29.421Z,51.9
2022-08-31T08:17:13.120Z,51.9
2022-08-31T08:18:56.823Z,51.8
2022-08-31T08:20:40.516Z,51.8
2022-08-31T08:22:24.222Z,51.8
2022-08-31T08:24:07.926Z,51.8
2022-08-31T08:25:51.626Z,51.8
2022-08-31T08:27:35.330Z,51.8
2022-08-31T08:29:19.028Z,51.9
2022-08-31T08:31:02.733Z,51.9
2022-08-31T08:32:46.434Z,51.8
2022-08-31T08:34:30.134Z,51.8
2022-08-31T08:36:13.852Z,51.7
2022-08-31T08:37:57.539Z,51.8
2022-08-31T08:39:41.243Z,51.8
2022-08-31T08:41:24.950Z,51.7
2022-08-31T08:43:08.654Z,51.8
2022-08-31T08:44:52.348Z,51.8
2022-08-31T08:46:36.053Z,51.6
2022-08-31T08:48:19.750Z,51.6
2022-08-31T08:50:03.447Z,51.7
2022-08-31T08:51:47.155Z,51.6
2022-08-31T08:53:30.855Z,51.7
2022-08-31T08:55:14.561Z,51.6
2022-08-31T08:56:58.264Z,51.6
2022-08-31T08:58:41.963Z,51.6
2022-08-31T09:00:25.663Z,51.6
2022-08-31T09:02:09.376Z,51.6
2022-08-31T09:03:53.061Z,51.6
2022-08-31T09:05:36.767Z,51.5
2022-08-31T09:07:20.468Z,51.5
2022-08-31T09:09:04.173Z,51.5
2022-08-31T09:10:47.880Z,51.5
2022-08-31T09:12:31.575Z,51.4
2022-08-31T09:14:15.281Z,51.5
2022-08-31T09:15:58.981Z,51.5
2022-08-31T09:17:42.679Z,51.4
2022-08-31T09:19:26.390Z,51.4
2022-08-31T09:21:10.097Z,51.4
2022-08-31T09:22:53.778Z,51.5
2022-08-31T09:24:37.486Z,51.4
2022-08-31T09:26:21.203Z,51.4
2022-08-31T09:28:04.889Z,51.4
2022-08-31T09:29:48.596Z,51.5
2022-08-31T09:31:32.292Z,51.4
2022-08-31T09:33:16.000Z,51.5
2022-08-31T09:34:59.707Z,51.5
2022-08-31T09:36:43.393Z,51.4
2022-08-31T09:38:27.100Z,51.4
2022-08-31T09:40:10.803Z,51.4
2022-08-31T09:41:54.500Z,51.4
2022-08-31T09:43:38.208Z,51.4
2022-08-31T09:45:21.921Z,51.4
2022-08-31T09:47:05.613Z,51.4
2022-08-31T09:48:49.311Z,51.4
2022-08-31T09:50:33.019Z,51.4
2022-08-31T09:52:16.721Z,51.4
2022-08-31T09:54:00.427Z,51.4
2022-08-31T09:55:44.122Z,51.4
2022-08-31T09:57:27.826Z,51.4
2022-08-31T09:59:11.530Z,51.4
2022-08-31T10:00:55.223Z,51.4
2022-08-31T10:02:38.931Z,51.4
2022-08-31T10:04:22.631Z,51.4
2022-08-31T10:06:06.336Z,51.4
2022-08-31T10:07:50.043Z,51.4
2022-08-31T10:09:33.737Z,51.4
2022-08-31T10:11:17.444Z,51.4
2022-08-31T10:13:01.148Z,51.4
2022-08-31T10:14:44.846Z,51.4
2022-08-31T10:16:28.550Z,51.4
2022-08-31T10:18:12.250Z,51.4
2022-08-31T10:19:55.946Z,51.5
2022-08-31T10:21:39.647Z,51.5
2022-08-31T10:23:23.355Z,51.5
2022-08-31T10:25:07.052Z,51.5
2022-08-31T10:26:50.761Z,51.5
2022-08-31T10:28:34.456Z,51.5
2022-08-31T10:30:18.176Z,51.5
2022-08-31T10:32:01.866Z,51.6
2022-08-31T10:33:45.563Z,51.5
2022-08-31T10:35:29.270Z,51.6
2022-08-31T10:37:12.969Z,51.6
2022-08-31T10:38:56.663Z,51.7
2022-08-31T10:40:40.367Z,51.8
2022-08-31T10:42:24.088Z,51.8
2022-08-31T10:44:07.769Z,51.7
2022-08-31T10:45:51.472Z,51.8
2022-08-31T10:47:35.177Z,51.8
2022-08-31T10:49:18.875Z,51.7
2022-08-31T10:51:02.581Z,51.7
2022-08-31T10:52:46.272Z,51.8
2022-08-31T10:54:29.980Z,51.7
2022-08-31T10:56:13.682Z,51.7
2022-08-31T10:57:57.379Z,51.7
2022-08-31T10:59:41.085Z,51.7
2022-08-31T11:01:24.784Z,51.6
2022-08-31T11:03:08.483Z,51.7
2022-08-31T11:04:52.188Z,51.7
2022-08-31T11:06:35.889Z,51.6
2022-08-31T11:08:19.590Z,51.6
2022-08-31T11:10:03.333Z,51.6
2022-08-31T11:11:46.991Z,51.6
2022-08-31T11:13:30.698Z,51.6
2022-08-31T11:15:14.411Z,51.6
2022-08-31T11:16:58.101Z,51.6
2022-08-31T11:18:41.800Z,51.7
2022-08-31T11:20:25.506Z,51.7
2022-08-31T11:22:09.200Z,51.8
2022-08-31T11:23:52.904Z,51.8
2022-08-31T11:25:36.610Z,51.8
2022-08-31T11:27:20.310Z,51.8
2022-08-31T11:29:04.020Z,51.7
2022-08-31T11:30:47.713Z,51.7
2022-08-31T11:32:31.420Z,51.6
2022-08-31T11:34:15.117Z,51.6
2022-08-31T11:35:58.816Z,51.6
2022-08-31T11:37:42.517Z,51.6
2022-08-31T11:39:26.224Z,51.6
2022-08-31T11:41:09.919Z,51.6
2022-08-31T11:42:53.632Z,51.6
2022-08-31T11:44:37.327Z,51.7
2022-08-31T11:46:21.026Z,51.7
2022-08-31T11:48:04.738Z,51.6
2022-08-31T11:49:48.432Z,51.7
2022-08-31T11:51:32.154Z,51.7
2022-08-31T11:53:15.837Z,51.7
2022-08-31T11:54:59.542Z,51.7
2022-08-31T11:56:43.235Z,51.7
2022-08-31T11:58:26.942Z,51.7
2022-08-31T12:00:10.638Z,51.7
2022-08-31T12:01:54.343Z,51.7
2022-08-31T12:03:38.048Z,51.7
2022-08-31T12:05:21.742Z,51.7
2022-08-31T12:07:05.441Z,51.7
2022-08-31T12:08:49.155Z,51.7
2022-08-31T12:10:32.845Z,51.7
2022-08-31T12:12:16.539Z,51.7
2022-08-31T12:14:00.250Z,51.7
2022-08-31T12:15:43.953Z,51.7
2022-08-31T12:17:27.652Z,51.7
2022-08-31T12:19:11.348Z,51.8
2022-08-31T12:20:55.063Z,51.8
2022-08-31T12:22:38.762Z,51.8
2022-08-31T12:24:22.453Z,51.7
2022-08-31T12:26:06.158Z,51.7
2022-08-31T12:27:49.864Z,51.7
2022-08-31T12:29:33.595Z,51.8
2022-08-31T12:31:17.283Z,51.7
2022-08-31T12:33:00.965Z,51.7
2022-08-31T12:34:44.665Z,51.7
2022-08-31T12:36:28.373Z,51.7
2022-08-31T12:38:12.070Z,51.7
2022-08-31T12:39:55.771Z,51.7
2022-08-31T12:41:39.472Z,51.6
2022-08-31T12:43:23.170Z,51.7
2022-08-31T12:45:06.876Z,51.7
2022-08-31T12:46:50.584Z,51.7
2022-08-31T12:48:34.275Z,51.6
2022-08-31T12:50:17.979Z,51.6
2022-08-31T12:52:01.685Z,51.6
2022-08-31T12:53:45.379Z,51.6
2022-08-31T12:55:29.083Z,51.6
2022-08-31T12:57:12.788Z,51.6
2022-08-31T12:58:56.491Z,51.6
2022-08-31T13:00:40.213Z,51.6
2022-08-31T13:02:23.891Z,51.6
2022-08-31T13:04:07.589Z,51.6
2022-08-31T13:05:51.304Z,51.6
2022-08-31T13:07:34.987Z,51.6
2022-08-31T13:09:18.689Z,51.7
2022-08-31T13:11:02.401Z,51.7
2022-08-31T13:12:46.095Z,51.7
2022-08-31T13:14:29.798Z,51.7
2022-08-31T13:16:13.503Z,51.7
2022-08-31T13:17:57.209Z,51.7
2022-08-31T13:19:40.918Z,51.8
2022-08-31T13:21:24.606Z,51.8
2022-08-31T13:23:08.316Z,51.8
2022-08-31T13:24:52.024Z,51.8
2022-08-31T13:26:35.727Z,51.8
2022-08-31T13:28:19.426Z,51.8
2022-08-31T13:30:03.126Z,51.8
2022-08-31T13:31:46.824Z,51.8
2022-08-31T13:33:30.537Z,51.8
2022-08-31T13:35:14.226Z,51.8
2022-08-31T13:36:57.931Z,51.8
2022-08-31T13:38:41.638Z,51.8
2022-08-31T13:40:25.334Z,51.8
2022-08-31T13:42:09.036Z,51.8
2022-08-31T13:43:52.746Z,51.8
2022-08-31T13:45:36.441Z,51.8
2022-08-31T13:47:20.144Z,51.8
2022-08-31T13:49:03.850Z,51.7
2022-08-31T13:50:47.551Z,51.7
2022-08-31T13:52:31.258Z,51.7
2022-08-31T13:54:14.958Z,51.6
2022-08-31T13:55:58.658Z,51.6
2022-08-31T13:57:42.364Z,51.6
2022-08-31T13:59:26.057Z,51.5
2022-08-31T14:01:09.763Z,51.5
2022-08-31T14:02:53.488Z,51.4
2022-08-31T14:04:37.171Z,51.4
2022-08-31T14:06:20.871Z,51.4
2022-08-31T14:08:04.575Z,51.4
2022-08-31T14:09:48.277Z,51.4
2022-08-31T14:11:31.978Z,51.4
2022-08-31T14:13:15.676Z,51.4
2022-08-31T14:14:59.377Z,51.3
2022-08-31T14:16:43.093Z,51.3
2022-08-31T14:18:26.779Z,51.4
2022-08-31T14:20:10.482Z,51.3
2022-08-31T14:21:54.191Z,51.3
2022-08-31T14:23:37.895Z,51.3
2022-08-31T14:25:21.607Z,51.3
2022-08-31T14:27:05.295Z,51.3
2022-08-31T14:28:49.004Z,51.3
2022-08-31T14:30:32.707Z,51.3
2022-08-31T14:32:16.404Z,51.3
2022-08-31T14:34:00.106Z,51.2
2022-08-31T14:35:43.827Z,51.2
2022-08-31T14:37:27.506Z,51.3
2022-08-31T14:39:11.217Z,51.3
2022-08-31T14:40:54.921Z,51.2
2022-08-31T14:42:38.610Z,51.2
2022-08-31T14:44:22.313Z,51.3
2022-08-31T14:46:06.031Z,51.3
2022-08-31T14:47:49.725Z,51.3
2022-08-31T14:49:33.431Z,51.4
2022-08-31T14:51:17.117Z,51.4
2022-08-31T14:53:00.824Z,51.3
2022-08-31T14:54:44.538Z,51.3
2022-08-31T14:56:28.229Z,51.3
2022-08-31T14:58:11.935Z,51.3
2022-08-31T14:59:55.639Z,51.2
2022-08-31T15:01:39.338Z,51.2
2022-08-31T15:03:23.035Z,51.2
2022-08-31T15:05:06.736Z,51.2
2022-08-31T15:06:50.441Z,51.2
2022-08-31T15:08:34.152Z,51.1
2022-08-31T15:10:17.858Z,51.1
2022-08-31T15:12:01.551Z,51.1
2022-08-31T15:13:45.255Z,51.1
2022-08-31T15:15:28.955Z,51.1
2022-08-31T15:17:12.660Z,51.1
2022-08-31T15:18:56.363Z,51.1
2022-08-31T15:20:40.063Z,51.1
2022-08-31T15:22:23.765Z,51.1
2022-08-31T15:24:07.460Z,51.1
2022-08-31T15:25:51.169Z,51.1
2022-08-31T15:27:34.875Z,51.1
2022-08-31T15:29:18.575Z,51
2022-08-31T15:31:02.277Z,51.1
2022-08-31T15:32:45.971Z,51.1
2022-08-31T15:34:29.674Z,51.1
2022-08-31T15:36:13.375Z,51.1
2022-08-31T15:37:57.077Z,51.2
2022-08-31T15:39:40.780Z,51.2
2022-08-31T15:41:24.488Z,51.2
2022-08-31T15:43:08.187Z,51.2
2022-08-31T15:44:51.890Z,51.2
2022-08-31T15:46:35.590Z,51.3
2022-08-31T15:48:19.290Z,51.3
2022-08-31T15:50:04.881Z,51.3
2022-08-31T15:51:46.701Z,51.3
2022-08-31T15:53:30.396Z,51.3
2022-08-31T15:55:14.105Z,51.4
2022-08-31T15:56:57.806Z,51.4
2022-08-31T15:58:41.505Z,51.4
2022-08-31T16:00:25.210Z,51.4
2022-08-31T16:02:08.908Z,51.4
2022-08-31T16:03:52.613Z,51.4
2022-08-31T16:05:36.315Z,51.4
2022-08-31T16:07:20.019Z,51.5
2022-08-31T16:09:03.720Z,51.5
2022-08-31T16:10:47.416Z,51.5
2022-08-31T16:12:31.130Z,51.5
2022-08-31T16:14:14.825Z,51.5
2022-08-31T16:15:58.530Z,51.5
2022-08-31T16:17:42.224Z,51.5
2022-08-31T16:19:25.931Z,51.5
2022-08-31T16:21:09.632Z,51.5
2022-08-31T16:22:53.330Z,51.4
2022-08-31T16:24:37.047Z,51.4
2022-08-31T16:26:20.734Z,51.4
2022-08-31T16:28:04.440Z,51.4
2022-08-31T16:29:48.146Z,51.4
2022-08-31T16:31:31.839Z,51.3
2022-08-31T16:33:15.543Z,51.3
2022-08-31T16:34:59.255Z,51.2
2022-08-31T16:36:42.947Z,51.2
2022-08-31T16:38:26.655Z,51.2
2022-08-31T16:40:10.364Z,51.2
2022-08-31T16:41:54.059Z,51.2
2022-08-31T16:43:37.763Z,51.2
2022-08-31T16:45:21.459Z,51.2
2022-08-31T16:47:05.162Z,51.2
2022-08-31T16:48:48.864Z,51.2
2022-08-31T16:50:32.556Z,51.2
2022-08-31T16:52:16.266Z,51.2
2022-08-31T16:53:59.972Z,51.3
2022-08-31T16:55:43.664Z,51.2
2022-08-31T16:57:27.372Z,51.3
2022-08-31T16:59:11.071Z,51.4
2022-08-31T17:00:54.774Z,51.4
2022-08-31T17:02:38.490Z,51.5
2022-08-31T17:04:22.172Z,51.8
2022-08-31T17:06:05.875Z,51.9
2022-08-31T17:07:49.586Z,52
2022-08-31T17:09:33.298Z,52
2022-08-31T17:11:16.981Z,52
2022-08-31T17:13:00.700Z,52.3
2022-08-31T17:14:44.382Z,52.2
2022-08-31T17:16:28.088Z,52.3
2022-08-31T17:18:11.823Z,52.4
2022-08-31T17:19:55.491Z,52.5
2022-08-31T17:21:39.200Z,52.1
2022-08-31T17:23:22.889Z,50.7
2022-08-31T17:25:06.602Z,50.5
2022-08-31T17:26:50.299Z,50.2
2022-08-31T17:28:33.999Z,50.1
2022-08-31T17:30:17.701Z,49.7
2022-08-31T17:32:01.403Z,49.2
2022-08-31T17:33:45.096Z,49
2022-08-31T17:35:28.804Z,48.7
2022-08-31T17:37:12.522Z,48.6
2022-08-31T17:38:56.215Z,48.4
2022-08-31T17:40:39.919Z,48.4
2022-08-31T17:42:23.614Z,48.5
2022-08-31T17:44:07.323Z,48.6
2022-08-31T17:45:51.037Z,48.8
2022-08-31T17:47:34.719Z,49
2022-08-31T17:49:18.427Z,49.2
2022-08-31T17:51:02.121Z,49.4
2022-08-31T17:52:45.821Z,49.2
2022-08-31T17:54:29.524Z,49.2
2022-08-31T17:56:13.222Z,49.3
2022-08-31T17:57:56.931Z,49.5
2022-08-31T17:59:40.633Z,49.6
2022-08-31T18:01:24.329Z,49.7
2022-08-31T18:03:08.032Z,49.9
2022-08-31T18:04:51.736Z,49.9
2022-08-31T18:06:35.433Z,50
2022-08-31T18:08:19.136Z,50.1
2022-08-31T18:10:02.841Z,50.1
2022-08-31T18:11:46.557Z,50
2022-08-31T18:13:30.233Z,49.9
2022-08-31T18:15:13.942Z,50.1
2022-08-31T18:16:57.642Z,50.3
2022-08-31T18:18:41.341Z,50.4
2022-08-31T18:20:25.041Z,50.6
2022-08-31T18:22:08.751Z,50.9
2022-08-31T18:23:52.447Z,51
2022-08-31T18:25:36.147Z,51.3
2022-08-31T18:27:19.853Z,51.6
2022-08-31T18:29:03.548Z,51.8
2022-08-31T18:30:47.250Z,52
2022-08-31T18:32:30.953Z,52.3
2022-08-31T18:34:14.650Z,52.4
2022-08-31T18:35:58.357Z,52.6
2022-08-31T18:37:42.059Z,52.8
2022-08-31T18:39:25.750Z,53.1
2022-08-31T18:41:09.455Z,53.3
2022-08-31T18:42:53.166Z,53.4
2022-08-31T18:44:36.861Z,53.1
2022-08-31T18:46:20.563Z,52.6
2022-08-31T18:48:04.266Z,52.3
2022-08-31T18:49:47.971Z,52.1
2022-08-31T18:51:31.676Z,51.9
2022-08-31T18:53:15.366Z,51.8
2022-08-31T18:54:59.071Z,51.7
2022-08-31T18:56:42.775Z,51.6
2022-08-31T18:58:26.471Z,51.6
2022-08-31T19:00:10.175Z,51.5
2022-08-31T19:01:53.873Z,51.5
2022-08-31T19:03:37.575Z,51.4
2022-08-31T19:05:21.271Z,51.3
2022-08-31T19:07:04.987Z,51.2
2022-08-31T19:08:48.693Z,51.2
2022-08-31T19:10:32.380Z,51.1
2022-08-31T19:12:16.080Z,51.1
2022-08-31T19:13:59.780Z,51.1
2022-08-31T19:15:43.486Z,51.1
2022-08-31T19:17:27.178Z,51
2022-08-31T19:19:10.888Z,51.1
2022-08-31T19:20:54.587Z,51.2
2022-08-31T19:22:38.282Z,51.4
2022-08-31T19:24:21.990Z,51.5
2022-08-31T19:26:05.694Z,51.5
2022-08-31T19:27:49.393Z,51.6
2022-08-31T19:29:33.109Z,51.7
2022-08-31T19:31:16.797Z,51.6
2022-08-31T19:33:00.505Z,51.5
2022-08-31T19:34:44.207Z,51.5
2022-08-31T19:36:27.899Z,51.6
2022-08-31T19:38:11.600Z,51.7
2022-08-31T19:39:55.306Z,51.7
2022-08-31T19:41:39.007Z,51.5
2022-08-31T19:43:22.711Z,51.6
2022-08-31T19:45:06.420Z,51.6
2022-08-31T19:46:50.119Z,51.6
2022-08-31T19:48:33.835Z,51.7
2022-08-31T19:50:17.516Z,51.9
2022-08-31T19:52:01.233Z,51.8
2022-08-31T19:53:44.929Z,51.9
2022-08-31T19:55:28.616Z,52
2022-08-31T19:57:12.324Z,51.9
2022-08-31T19:58:56.032Z,51.9
2022-08-31T20:00:39.725Z,51.8
2022-08-31T20:02:23.432Z,52
2022-08-31T20:04:07.129Z,52
2022-08-31T20:05:50.836Z,51.9
2022-08-31T20:07:34.541Z,51.8
2022-08-31T20:09:18.234Z,51.8
2022-08-31T20:11:01.934Z,51.8
2022-08-31T20:12:45.648Z,52
2022-08-31T20:14:29.344Z,52
2022-08-31T20:16:13.037Z,51.7
2022-08-31T20:17:56.759Z,51.8
2022-08-31T20:19:40.443Z,51.8
2022-08-31T20:21:24.149Z,51.8
2022-08-31T20:23:07.867Z,51.8
2022-08-31T20:24:51.548Z,51.8
2022-08-31T20:26:35.253Z,51.9
2022-08-31T20:28:18.947Z,51.9
2022-08-31T20:30:02.673Z,51.9
2022-08-31T20:31:46.361Z,52
2022-08-31T20:33:30.053Z,52
2022-08-31T20:35:13.751Z,52
2022-08-31T20:36:57.464Z,52
2022-08-31T20:38:41.170Z,52.1
2022-08-31T20:40:24.881Z,52.1
2022-08-31T20:42:08.562Z,52.1
2022-08-31T20:43:52.273Z,52.1
2022-08-31T20:45:35.974Z,52.2
2022-08-31T20:47:19.670Z,52.1
2022-08-31T20:49:03.369Z,52.1
2022-08-31T20:50:47.090Z,52.1
2022-08-31T20:52:30.771Z,52.2
2022-08-31T20:54:14.472Z,52.2
2022-08-31T20:55:58.180Z,52.3
2022-08-31T20:57:41.891Z,52.4
2022-08-31T20:59:25.587Z,52.4
2022-08-31T21:01:09.281Z,52.5
2022-08-31T21:02:53.007Z,52.5
2022-08-31T21:04:36.688Z,52.5
2022-08-31T21:06:20.389Z,52.5
2022-08-31T21:08:04.095Z,52.5
2022-08-31T21:09:47.799Z,52.5
2022-08-31T21:11:31.500Z,52.5
2022-08-31T21:13:15.201Z,52.5
2022-08-31T21:14:58.907Z,52.5
2022-08-31T21:16:42.608Z,52.5
2022-08-31T21:18:26.311Z,52.5
2022-08-31T21:20:10.005Z,52.6
2022-08-31T21:21:53.711Z,52.6
2022-08-31T21:23:37.416Z,52.6
2022-08-31T21:25:21.110Z,52.8
2022-08-31T21:27:04.820Z,52.8
2022-08-31T21:28:48.520Z,53.2
2022-08-31T21:30:32.214Z,53.5
2022-08-31T21:32:15.917Z,53.5
2022-08-31T21:33:59.619Z,53.6
2022-08-31T21:35:43.321Z,53.3
2022-08-31T21:37:27.023Z,53.4
2022-08-31T21:39:10.719Z,53.5
2022-08-31T21:40:54.433Z,53.5
2022-08-31T21:42:38.130Z,53.7
2022-08-31T21:44:21.823Z,53.5
2022-08-31T21:46:05.529Z,53.3
2022-08-31T21:47:49.230Z,53.1
2022-08-31T21:49:32.930Z,53
2022-08-31T21:51:16.637Z,53.1
2022-08-31T21:53:00.338Z,53.1
2022-08-31T21:54:44.042Z,53.1
2022-08-31T21:56:27.744Z,53.2
2022-08-31T21:58:11.442Z,53.3
2022-08-31T21:59:55.153Z,53.4
2022-08-31T22:01:38.849Z,53.4
2022-08-31T22:03:22.542Z,53.5
2022-08-31T22:05:06.244Z,53.6
2022-08-31T22:06:49.949Z,53.6
2022-08-31T22:08:33.644Z,53.5
2022-08-31T22:10:17.347Z,53.5
2022-08-31T22:12:01.058Z,53.5
2022-08-31T22:13:44.749Z,53.6
2022-08-31T22:15:28.455Z,53.6
2022-08-31T22:17:12.141Z,53.7
2022-08-31T22:18:55.851Z,53.8
2022-08-31T22:20:39.582Z,53.8
2022-08-31T22:22:23.249Z,53.8
2022-08-31T22:24:06.949Z,53.9
2022-08-31T22:25:50.697Z,53.8
2022-08-31T22:27:34.358Z,53.9
2022-08-31T22:29:18.086Z,53.8
2022-08-31T22:31:01.803Z,53.9
2022-08-31T22:32:45.461Z,54
2022-08-31T22:34:29.173Z,54
2022-08-31T22:36:12.861Z,54.1
2022-08-31T22:37:56.568Z,54.2
2022-08-31T22:39:40.276Z,54.3
2022-08-31T22:41:23.968Z,54.3
2022-08-31T22:43:07.685Z,54.1
2022-08-31T22:44:51.385Z,54.1
2022-08-31T22:46:35.075Z,54
2022-08-31T22:48:18.783Z,54.2
2022-08-31T22:50:02.481Z,54.2
2022-08-31T22:51:46.186Z,54.2
2022-08-31T22:53:29.896Z,54.2
2022-08-31T22:55:13.592Z,54.3
2022-08-31T22:56:57.294Z,54.2
2022-08-31T22:58:41.012Z,54.2
2022-08-31T23:00:24.703Z,54.4
2022-08-31T23:02:08.400Z,54.3
2022-08-31T23:03:52.108Z,54.2
2022-08-31T23:05:35.809Z,54.1
2022-08-31T23:07:19.511Z,54